TimeEDT,TemperatureF,Dew PointF,Humidity,Sea Level PressureIn,VisibilityMPH,Wind Direction,Wind SpeedMPH,Gust SpeedMPH,PrecipitationIn,Events,Conditions,WindDirDegrees,DateUTC
12:53 AM,57.0,52.0,83,30.17,10.0,Calm,Calm,-,N/A,,Clear,0,2012-03-21 04:53:00
1:53 AM,55.9,52.0,87,30.16,10.0,Calm,Calm,-,N/A,,Clear,0,2012-03-21 05:53:00
2:53 AM,57.0,52.0,83,30.16,10.0,ENE,3.5,-,N/A,,Clear,60,2012-03-21 06:53:00
3:53 AM,55.9,51.1,84,30.15,10.0,NE,3.5,-,N/A,,Clear,50,2012-03-21 07:53:00
4:53 AM,53.1,51.1,93,30.15,8.0,Calm,Calm,-,N/A,,Clear,0,2012-03-21 08:53:00
5:53 AM,53.1,50.0,89,30.16,9.0,ENE,3.5,-,N/A,,Clear,60,2012-03-21 09:53:00
6:53 AM,55.0,50.0,83,30.17,9.0,Calm,Calm,-,N/A,,Clear,0,2012-03-21 10:53:00
8:53 AM,57.9,53.1,84,30.20,7.0,ENE,3.5,-,N/A,,Clear,70,2012-03-21 12:53:00
9:53 AM,62.1,55.0,78,30.20,7.0,East,4.6,-,N/A,,Clear,100,2012-03-21 13:53:00
10:53 AM,71.1,57.0,61,30.20,10.0,South,4.6,-,N/A,,Clear,190,2012-03-21 14:53:00
11:53 AM,77.0,57.0,50,30.19,10.0,SW,8.1,-,N/A,,Clear,220,2012-03-21 15:53:00
12:53 PM,79.0,55.9,45,30.17,10.0,SW,9.2,-,N/A,,Clear,220,2012-03-21 16:53:00
1:53 PM,81.0,55.9,42,30.15,10.0,South,4.6,-,N/A,,Clear,180,2012-03-21 17:53:00
2:53 PM,82.9,54.0,37,30.12,10.0,South,9.2,-,N/A,,Clear,180,2012-03-21 18:53:00
3:53 PM,82.9,53.1,36,30.10,10.0,SSE,8.1,-,N/A,,Clear,160,2012-03-21 19:53:00
4:53 PM,82.9,54.0,37,30.09,10.0,SSE,8.1,-,N/A,,Clear,160,2012-03-21 20:53:00
5:53 PM,81.0,54.0,39,30.09,10.0,ESE,10.4,-,N/A,,Clear,110,2012-03-21 21:53:00
6:53 PM,78.1,54.0,43,30.10,10.0,SE,9.2,-,N/A,,Clear,130,2012-03-21 22:53:00
7:53 PM,73.0,54.0,51,30.12,10.0,ESE,6.9,-,N/A,,Clear,120,2012-03-21 23:53:00
8:53 PM,69.1,54.0,58,30.14,10.0,Calm,Calm,-,N/A,,Clear,0,2012-03-22 00:53:00
9:53 PM,66.0,52.0,60,30.15,10.0,Calm,Calm,-,N/A,,Clear,0,2012-03-22 01:53:00
10:53 PM,63.0,52.0,67,30.15,10.0,Calm,Calm,-,N/A,,Clear,0,2012-03-22 02:53:00
11:53 PM,61.0,52.0,72,30.14,10.0,SE,5.8,-,N/A,,Clear,130,2012-03-22 03:53:00